createdAt,value
2022-08-03T00:00:17.469Z,18.74
2022-08-03T00:01:17.618Z,18.76
2022-08-03T00:02:17.980Z,18.72
2022-08-03T00:03:17.955Z,18.71
2022-08-03T00:04:18.025Z,18.69
2022-08-03T00:05:18.180Z,18.71
2022-08-03T00:06:18.299Z,18.69
2022-08-03T00:07:18.474Z,18.69
2022-08-03T00:08:19.579Z,18.68
2022-08-03T00:09:18.744Z,18.68
2022-08-03T00:10:18.839Z,18.68
2022-08-03T00:11:18.986Z,18.68
2022-08-03T00:12:19.287Z,18.65
2022-08-03T00:13:19.267Z,18.68
2022-08-03T00:14:19.367Z,18.66
2022-08-03T00:15:19.507Z,18.64
2022-08-03T00:16:19.670Z,18.64
2022-08-03T00:17:19.834Z,18.62
2022-08-03T00:18:19.906Z,18.60
2022-08-03T00:19:20.056Z,18.60
2022-08-03T00:20:20.179Z,18.59
2022-08-03T00:21:20.287Z,18.57
2022-08-03T00:22:20.481Z,18.56
2022-08-03T00:23:20.567Z,18.54
2022-08-03T00:24:20.720Z,18.53
2022-08-03T00:25:20.867Z,18.53
2022-08-03T00:26:21.044Z,18.51
2022-08-03T00:27:21.160Z,18.49
2022-08-03T00:28:21.260Z,18.47
2022-08-03T00:29:21.407Z,18.46
2022-08-03T00:30:21.555Z,18.46
2022-08-03T00:31:27.780Z,18.44
2022-08-03T00:32:24.079Z,18.42
2022-08-03T00:33:21.977Z,18.42
2022-08-03T00:34:29.822Z,18.46
2022-08-03T00:35:32.606Z,18.46
2022-08-03T00:36:23.297Z,18.47
2022-08-03T00:37:22.388Z,18.50
2022-08-03T00:38:23.517Z,18.51
2022-08-03T00:39:22.617Z,18.54
2022-08-03T00:40:22.739Z,18.56
2022-08-03T00:41:22.847Z,18.57
2022-08-03T00:42:23.017Z,18.54
2022-08-03T00:43:24.170Z,18.53
2022-08-03T00:44:23.238Z,18.53
2022-08-03T00:45:23.424Z,18.51
2022-08-03T00:46:23.572Z,18.51
2022-08-03T00:47:23.718Z,18.49
2022-08-03T00:48:32.830Z,18.47
2022-08-03T00:49:25.050Z,18.44
2022-08-03T00:50:24.087Z,18.42
2022-08-03T00:51:24.224Z,18.39
2022-08-03T00:52:24.318Z,18.36
2022-08-03T00:53:24.488Z,18.38
2022-08-03T00:54:24.659Z,18.35
2022-08-03T00:55:24.788Z,18.31
2022-08-03T00:56:24.887Z,18.28
2022-08-03T00:57:25.046Z,18.28
2022-08-03T00:58:25.209Z,18.23
2022-08-03T00:59:25.305Z,18.20
2022-08-03T01:00:25.446Z,18.19
2022-08-03T01:01:25.630Z,18.19
2022-08-03T01:02:25.668Z,18.17
2022-08-03T01:03:25.826Z,18.14
2022-08-03T01:04:25.980Z,18.16
2022-08-03T01:05:26.087Z,18.16
2022-08-03T01:06:26.208Z,18.16
2022-08-03T01:07:26.355Z,18.14
2022-08-03T01:08:26.498Z,18.14
2022-08-03T01:09:28.648Z,18.14
2022-08-03T01:10:26.798Z,18.17
2022-08-03T01:11:26.898Z,18.14
2022-08-03T01:12:27.039Z,18.14
2022-08-03T01:14:03.447Z,18.13
2022-08-03T01:14:28.297Z,18.14
2022-08-03T01:15:27.426Z,18.11
2022-08-03T01:16:35.882Z,18.09
2022-08-03T01:17:28.689Z,18.09
2022-08-03T01:18:27.810Z,18.05
2022-08-03T01:19:27.975Z,18.05
2022-08-03T01:20:28.108Z,18.02
2022-08-03T01:21:28.269Z,18.02
2022-08-03T01:22:28.438Z,18.01
2022-08-03T01:23:29.047Z,18.01
2022-08-03T01:24:28.736Z,18.01
2022-08-03T01:25:28.882Z,17.98
2022-08-03T01:26:29.049Z,17.98
2022-08-03T01:27:29.144Z,17.99
2022-08-03T01:28:29.298Z,17.99
2022-08-03T01:29:29.466Z,17.99
2022-08-03T01:30:29.677Z,17.99
2022-08-03T01:31:29.739Z,17.98
2022-08-03T01:33:02.226Z,17.96
2022-08-03T01:33:31.010Z,17.96
2022-08-03T01:34:30.214Z,17.95
2022-08-03T01:35:30.289Z,17.92
2022-08-03T01:36:30.485Z,17.89
2022-08-03T01:37:30.579Z,17.87
2022-08-03T01:38:30.759Z,17.84
2022-08-03T01:39:30.839Z,17.83
2022-08-03T01:40:30.978Z,17.80
2022-08-03T01:41:31.167Z,17.79
2022-08-03T01:42:31.308Z,17.76
2022-08-03T01:43:55.217Z,17.76
2022-08-03T01:44:32.597Z,17.74
2022-08-03T01:45:33.999Z,17.73
2022-08-03T01:46:31.939Z,17.71
2022-08-03T01:47:32.006Z,17.71
2022-08-03T01:48:32.173Z,17.70
2022-08-03T01:49:32.407Z,17.70
2022-08-03T01:50:32.442Z,17.71
2022-08-03T01:52:02.804Z,17.71
2022-08-03T01:52:33.706Z,17.70
2022-08-03T01:53:32.867Z,17.71
2022-08-03T01:54:33.019Z,17.70
2022-08-03T01:55:33.118Z,17.70
2022-08-03T01:56:33.275Z,17.70
2022-08-03T01:57:33.460Z,17.70
2022-08-03T01:58:34.548Z,17.71
2022-08-03T01:59:33.668Z,17.71
2022-08-03T02:00:33.861Z,17.74
2022-08-03T02:02:15.325Z,17.74
2022-08-03T02:02:36.521Z,17.76
2022-08-03T02:03:34.197Z,17.77
2022-08-03T02:04:34.356Z,17.77
2022-08-03T02:05:34.508Z,17.76
2022-08-03T02:07:01.549Z,17.79
2022-08-03T02:07:35.766Z,17.77
2022-08-03T02:08:34.949Z,17.79
2022-08-03T02:09:35.095Z,17.77
2022-08-03T02:10:36.071Z,17.77
2022-08-03T02:11:35.357Z,17.76
2022-08-03T02:12:35.529Z,17.74
2022-08-03T02:13:35.617Z,17.73
2022-08-03T02:14:35.712Z,17.74
2022-08-03T02:15:35.834Z,17.73
2022-08-03T02:16:36.009Z,17.73
2022-08-03T02:17:38.486Z,17.71
2022-08-03T02:18:36.180Z,17.71
2022-08-03T02:19:36.316Z,17.71
2022-08-03T02:20:36.505Z,17.68
2022-08-03T02:21:57.156Z,17.65
2022-08-03T02:22:37.723Z,17.65
2022-08-03T02:23:36.889Z,17.66
2022-08-03T02:24:37.056Z,17.63
2022-08-03T02:25:37.129Z,17.63
2022-08-03T02:26:37.349Z,17.60
2022-08-03T02:27:40.570Z,17.57
2022-08-03T02:28:38.516Z,17.54
2022-08-03T02:29:39.417Z,17.54
2022-08-03T02:30:37.859Z,17.53
2022-08-03T02:31:38.027Z,17.49
2022-08-03T02:32:38.206Z,17.47
2022-08-03T02:33:38.347Z,17.46
2022-08-03T02:34:38.459Z,17.45
2022-08-03T02:35:38.565Z,17.42
2022-08-03T02:36:38.741Z,17.40
2022-08-03T02:37:38.905Z,17.42
2022-08-03T02:38:38.983Z,17.42
2022-08-03T02:39:39.134Z,17.43
2022-08-03T02:40:39.287Z,17.42
2022-08-03T02:41:39.456Z,17.43
2022-08-03T02:42:39.649Z,17.45
2022-08-03T02:44:06.557Z,17.43
2022-08-03T02:44:40.956Z,17.43
2022-08-03T02:45:43.770Z,17.45
2022-08-03T02:46:41.139Z,17.42
2022-08-03T02:47:53.140Z,17.42
2022-08-03T02:48:41.444Z,17.40
2022-08-03T02:49:50.571Z,17.38
2022-08-03T02:50:41.745Z,17.38
2022-08-03T02:51:40.856Z,17.36
2022-08-03T02:52:40.992Z,17.35
2022-08-03T02:53:41.147Z,17.33
2022-08-03T02:54:41.238Z,17.35
2022-08-03T02:55:42.941Z,17.33
2022-08-03T02:56:41.536Z,17.30
2022-08-03T02:57:41.659Z,17.32
2022-08-03T02:58:41.808Z,17.30
2022-08-03T02:59:41.891Z,17.28
2022-08-03T03:00:42.068Z,17.30
2022-08-03T03:01:42.149Z,17.28
2022-08-03T03:02:43.907Z,17.27
2022-08-03T03:03:44.749Z,17.27
2022-08-03T03:04:58.834Z,17.28
2022-08-03T03:05:55.790Z,17.28
2022-08-03T03:06:43.774Z,17.25
2022-08-03T03:07:51.866Z,17.28
2022-08-03T03:08:44.027Z,17.25
2022-08-03T03:09:43.312Z,17.25
2022-08-03T03:10:43.213Z,17.22
2022-08-03T03:11:43.348Z,17.22
2022-08-03T03:12:43.480Z,17.21
2022-08-03T03:13:43.607Z,17.21
2022-08-03T03:14:43.742Z,17.18
2022-08-03T03:15:43.870Z,17.18
2022-08-03T03:16:44.007Z,17.18
2022-08-03T03:17:44.125Z,17.15
2022-08-03T03:18:44.266Z,17.14
2022-08-03T03:19:44.396Z,17.14
2022-08-03T03:20:44.543Z,17.15
2022-08-03T03:21:44.626Z,17.14
2022-08-03T03:22:45.281Z,17.14
2022-08-03T03:23:44.915Z,17.12
2022-08-03T03:24:45.044Z,17.15
2022-08-03T03:25:45.174Z,17.15
2022-08-03T03:26:45.306Z,17.14
2022-08-03T03:27:48.831Z,17.15
2022-08-03T03:28:46.627Z,17.15
2022-08-03T03:29:45.703Z,17.15
2022-08-03T03:30:52.609Z,17.14
2022-08-03T03:31:46.999Z,17.14
2022-08-03T03:32:46.146Z,17.14
2022-08-03T03:33:46.307Z,17.15
2022-08-03T03:34:46.479Z,17.14
2022-08-03T03:35:46.638Z,17.15
2022-08-03T03:36:46.737Z,17.17
2022-08-03T03:37:46.866Z,17.17
2022-08-03T03:38:47.015Z,17.18
2022-08-03T03:39:47.118Z,17.17
2022-08-03T03:40:47.284Z,17.17
2022-08-03T03:41:47.404Z,17.17
2022-08-03T03:42:47.532Z,17.15
2022-08-03T03:43:47.665Z,17.12
2022-08-03T03:44:47.842Z,17.10
2022-08-03T03:45:48.008Z,17.07
2022-08-03T03:46:48.551Z,17.05
2022-08-03T03:47:48.334Z,17.03
2022-08-03T03:48:48.414Z,17.02
2022-08-03T03:49:48.565Z,16.99
2022-08-03T03:50:48.672Z,16.98
2022-08-03T03:51:48.790Z,16.99
2022-08-03T03:52:48.938Z,16.96
2022-08-03T03:53:49.025Z,16.96
2022-08-03T03:54:49.173Z,16.96
2022-08-03T03:55:59.551Z,16.98
2022-08-03T03:56:50.387Z,16.98
2022-08-03T03:57:49.504Z,16.98
2022-08-03T03:58:49.644Z,16.98
2022-08-03T03:59:49.779Z,16.99
2022-08-03T04:00:50.009Z,16.99
2022-08-03T04:01:58.503Z,17.00
2022-08-03T04:02:51.146Z,17.00
2022-08-03T04:03:50.273Z,17.02
2022-08-03T04:04:50.447Z,17.03
2022-08-03T04:05:50.522Z,17.03
2022-08-03T04:06:50.668Z,17.03
2022-08-03T04:07:50.796Z,17.05
2022-08-03T04:08:50.933Z,17.03
2022-08-03T04:09:51.083Z,17.05
2022-08-03T04:10:51.195Z,17.06
2022-08-03T04:11:51.335Z,17.06
2022-08-03T04:12:51.462Z,17.09
2022-08-03T04:13:51.604Z,17.07
2022-08-03T04:14:51.776Z,17.10
2022-08-03T04:15:51.854Z,17.12
2022-08-03T04:16:51.982Z,17.10
2022-08-03T04:17:52.124Z,17.10
2022-08-03T04:18:52.281Z,17.10
2022-08-03T04:19:52.383Z,17.10
2022-08-03T04:20:52.495Z,17.10
2022-08-03T04:21:52.605Z,17.09
2022-08-03T04:22:52.747Z,17.10
2022-08-03T04:23:52.883Z,17.10
2022-08-03T04:24:53.035Z,17.10
2022-08-03T04:25:53.145Z,17.12
2022-08-03T04:26:53.257Z,17.12
2022-08-03T04:28:07.769Z,17.17
2022-08-03T04:28:54.515Z,17.18
2022-08-03T04:29:53.637Z,17.20
2022-08-03T04:30:53.822Z,17.21
2022-08-03T04:31:53.893Z,17.24
2022-08-03T04:32:54.057Z,17.24
2022-08-03T04:33:54.153Z,17.27
2022-08-03T04:34:54.264Z,17.25
2022-08-03T04:36:00.935Z,17.27
2022-08-03T04:36:55.536Z,17.27
2022-08-03T04:37:54.644Z,17.24
2022-08-03T04:38:54.792Z,17.24
2022-08-03T04:39:57.648Z,17.25
2022-08-03T04:40:55.087Z,17.25
2022-08-03T04:42:07.783Z,17.25
2022-08-03T04:42:56.292Z,17.27
2022-08-03T04:43:55.414Z,17.28
2022-08-03T04:45:00.422Z,17.30
2022-08-03T04:45:56.685Z,17.30
2022-08-03T04:46:55.815Z,17.32
2022-08-03T04:47:55.942Z,17.30
2022-08-03T04:48:56.132Z,17.35
2022-08-03T04:49:56.195Z,17.38
2022-08-03T04:50:56.367Z,17.38
2022-08-03T04:51:56.454Z,17.38
2022-08-03T04:52:56.595Z,17.40
2022-08-03T04:53:56.743Z,17.42
2022-08-03T04:54:56.882Z,17.47
2022-08-03T04:55:57.023Z,17.51
2022-08-03T04:56:57.193Z,17.54
2022-08-03T04:57:57.284Z,17.60
2022-08-03T04:58:57.394Z,17.65
2022-08-03T05:00:02.615Z,17.68
2022-08-03T05:00:58.663Z,17.76
2022-08-03T05:01:57.871Z,17.79
2022-08-03T05:02:57.936Z,17.80
2022-08-03T05:03:58.056Z,17.81
2022-08-03T05:04:58.186Z,17.83
2022-08-03T05:06:09.756Z,17.86
2022-08-03T05:06:59.445Z,17.91
2022-08-03T05:08:00.818Z,17.95
2022-08-03T05:08:58.683Z,18.01
2022-08-03T05:10:02.962Z,18.04
2022-08-03T05:10:59.475Z,18.09
2022-08-03T05:11:59.017Z,18.14
2022-08-03T05:12:59.164Z,18.21
2022-08-03T05:13:59.318Z,18.28
2022-08-03T05:14:59.422Z,18.31
2022-08-03T05:15:59.552Z,18.38
2022-08-03T05:16:59.704Z,18.46
2022-08-03T05:17:59.836Z,18.51
2022-08-03T05:18:59.946Z,18.57
2022-08-03T05:20:00.073Z,18.62
2022-08-03T05:21:00.237Z,18.66
2022-08-03T05:22:00.334Z,18.74
2022-08-03T05:23:00.506Z,18.79
2022-08-03T05:24:00.587Z,18.86
2022-08-03T05:25:00.740Z,18.90
2022-08-03T05:26:00.834Z,18.94
2022-08-03T05:27:00.976Z,18.96
2022-08-03T05:28:01.149Z,19.01
2022-08-03T05:29:01.250Z,19.12
2022-08-03T05:30:30.590Z,19.21
2022-08-03T05:31:02.475Z,19.30
2022-08-03T05:32:06.247Z,19.39
2022-08-03T05:33:02.701Z,19.46
2022-08-03T05:34:01.795Z,19.50
2022-08-03T05:35:55.818Z,19.60
2022-08-03T05:36:04.404Z,19.64
2022-08-03T05:37:02.207Z,19.68
2022-08-03T05:38:02.334Z,19.76
2022-08-03T05:39:03.025Z,19.82
2022-08-03T05:40:02.573Z,19.86
2022-08-03T05:41:21.590Z,19.89
2022-08-03T05:42:03.827Z,19.92
2022-08-03T05:43:02.957Z,19.97
2022-08-03T05:44:03.108Z,20.01
2022-08-03T05:45:03.213Z,20.04
2022-08-03T05:46:12.037Z,20.05
2022-08-03T05:47:04.475Z,20.08
2022-08-03T05:48:03.605Z,20.10
2022-08-03T05:49:03.921Z,20.16
2022-08-03T05:50:03.845Z,20.17
2022-08-03T05:51:03.965Z,20.17
2022-08-03T05:52:12.796Z,20.19
2022-08-03T05:53:05.936Z,20.20
2022-08-03T05:54:04.452Z,20.20
2022-08-03T05:55:04.417Z,20.19
2022-08-03T05:56:13.651Z,20.23
2022-08-03T05:57:06.089Z,20.23
2022-08-03T05:58:04.816Z,20.27
2022-08-03T05:59:35.447Z,20.33
2022-08-03T06:00:06.615Z,20.38
2022-08-03T06:01:05.585Z,20.41
2022-08-03T06:02:05.378Z,20.44
2022-08-03T06:03:05.477Z,20.48
2022-08-03T06:04:05.635Z,20.53
2022-08-03T06:05:05.736Z,20.58
2022-08-03T06:06:05.845Z,20.63
2022-08-03T06:07:05.993Z,20.68
2022-08-03T06:08:06.108Z,20.73
2022-08-03T06:09:06.257Z,20.76
2022-08-03T06:10:35.887Z,20.82
2022-08-03T06:11:07.514Z,20.87
2022-08-03T06:12:09.107Z,20.93
2022-08-03T06:13:06.834Z,20.97
2022-08-03T06:14:06.888Z,21.05
2022-08-03T06:15:07.847Z,21.11
2022-08-03T06:16:07.142Z,21.16
2022-08-03T06:17:07.264Z,21.24
2022-08-03T06:18:07.416Z,21.31
2022-08-03T06:19:07.554Z,21.37
2022-08-03T06:20:07.648Z,21.40
2022-08-03T06:21:15.004Z,21.46
2022-08-03T06:22:08.909Z,21.52
2022-08-03T06:23:08.111Z,21.56
2022-08-03T06:24:09.199Z,21.66
2022-08-03T06:25:11.275Z,21.73
2022-08-03T06:26:08.421Z,21.82
2022-08-03T06:27:08.518Z,21.90
2022-08-03T06:28:14.966Z,21.96
2022-08-03T06:29:09.975Z,22.04
2022-08-03T06:30:10.652Z,22.09
2022-08-03T06:31:09.070Z,22.20
2022-08-03T06:32:09.902Z,22.30
2022-08-03T06:33:09.296Z,22.38
2022-08-03T06:34:34.145Z,22.42
2022-08-03T06:35:10.558Z,22.46
2022-08-03T06:36:09.637Z,22.51
2022-08-03T06:37:09.736Z,22.56
2022-08-03T06:38:09.878Z,22.61
2022-08-03T06:39:10.006Z,22.67
2022-08-03T06:40:10.097Z,22.75
2022-08-03T06:41:10.208Z,22.82
2022-08-03T06:42:10.397Z,22.88
2022-08-03T06:43:12.434Z,22.96
2022-08-03T06:44:10.695Z,23.03
2022-08-03T06:45:10.771Z,23.09
2022-08-03T06:46:10.866Z,23.14
2022-08-03T06:47:10.966Z,23.19
2022-08-03T06:48:11.107Z,23.23
2022-08-03T06:49:11.297Z,23.26
2022-08-03T06:50:16.658Z,23.35
2022-08-03T06:51:12.398Z,23.44
2022-08-03T06:52:11.539Z,23.52
2022-08-03T06:53:19.824Z,23.62
2022-08-03T06:54:12.778Z,23.69
2022-08-03T06:55:11.906Z,23.77
2022-08-03T06:56:14.008Z,23.84
2022-08-03T06:57:12.181Z,23.94
2022-08-03T06:58:12.267Z,24.00
2022-08-03T07:00:10.467Z,24.08
2022-08-03T07:00:13.900Z,24.15
2022-08-03T07:01:12.643Z,24.19
2022-08-03T07:02:12.752Z,24.31
2022-08-03T07:03:13.856Z,24.39
2022-08-03T07:04:12.989Z,24.39
2022-08-03T07:05:13.150Z,24.36
2022-08-03T07:06:13.279Z,24.41
2022-08-03T07:07:13.380Z,24.48
2022-08-03T07:08:13.501Z,24.55
2022-08-03T07:09:13.602Z,24.63
2022-08-03T07:10:13.741Z,24.70
2022-08-03T07:11:13.878Z,24.75
2022-08-03T07:12:14.029Z,24.77
2022-08-03T07:13:14.154Z,24.80
2022-08-03T07:14:14.262Z,24.89
2022-08-03T07:15:20.380Z,24.98
2022-08-03T07:16:15.508Z,25.05
2022-08-03T07:17:14.640Z,25.19
2022-08-03T07:18:14.790Z,25.30
2022-08-03T07:19:14.891Z,25.30
2022-08-03T07:20:15.057Z,25.39
2022-08-03T07:21:15.150Z,25.49
2022-08-03T07:22:15.449Z,25.49
2022-08-03T07:23:19.196Z,25.61
2022-08-03T07:24:15.516Z,25.64
2022-08-03T07:25:15.641Z,25.69
2022-08-03T07:26:15.799Z,25.71
2022-08-03T07:27:15.903Z,25.79
2022-08-03T07:28:16.050Z,25.86
2022-08-03T07:29:16.150Z,25.94
2022-08-03T07:30:16.291Z,25.96
2022-08-03T07:31:16.418Z,26.06
2022-08-03T07:32:16.836Z,26.17
2022-08-03T07:33:16.863Z,26.24
2022-08-03T07:34:16.824Z,26.31
2022-08-03T07:35:24.805Z,26.42
2022-08-03T07:36:18.091Z,26.44
2022-08-03T07:37:17.162Z,26.51
2022-08-03T07:38:17.322Z,26.60
2022-08-03T07:39:18.070Z,26.57
2022-08-03T07:40:17.552Z,26.66
2022-08-03T07:41:17.671Z,26.79
2022-08-03T07:42:18.196Z,26.87
2022-08-03T07:43:17.991Z,26.97
2022-08-03T07:44:18.063Z,27.02
2022-08-03T07:45:18.191Z,27.15
2022-08-03T07:46:18.333Z,27.20
2022-08-03T07:47:22.654Z,27.25
2022-08-03T07:48:18.625Z,27.23
2022-08-03T07:49:18.798Z,27.12
2022-08-03T07:50:18.836Z,27.05
2022-08-03T07:51:18.933Z,26.81
2022-08-03T07:52:19.317Z,26.76
2022-08-03T07:53:19.205Z,26.88
2022-08-03T07:54:19.373Z,27.02
2022-08-03T07:55:19.453Z,27.16
2022-08-03T07:56:19.595Z,27.35
2022-08-03T07:57:19.746Z,27.49
2022-08-03T07:58:24.006Z,27.48
2022-08-03T07:59:20.006Z,27.68
2022-08-03T08:00:20.176Z,27.80
2022-08-03T08:01:20.285Z,27.91
2022-08-03T08:02:20.364Z,27.98
2022-08-03T08:03:20.465Z,28.06
2022-08-03T08:04:20.627Z,28.06
2022-08-03T08:05:20.704Z,28.11
2022-08-03T08:06:20.855Z,28.09
2022-08-03T08:07:20.988Z,27.93
2022-08-03T08:08:21.125Z,28.08
2022-08-03T08:09:21.270Z,28.32
2022-08-03T08:10:21.434Z,28.40
2022-08-03T08:11:21.516Z,28.38
2022-08-03T08:12:21.690Z,28.39
2022-08-03T08:13:21.847Z,28.30
2022-08-03T08:14:22.080Z,28.18
2022-08-03T08:15:22.099Z,27.91
2022-08-03T08:16:22.206Z,27.93
2022-08-03T08:17:22.286Z,27.91
2022-08-03T08:18:22.437Z,27.93
2022-08-03T08:19:22.573Z,28.14
2022-08-03T08:20:23.841Z,28.32
2022-08-03T08:21:25.817Z,28.50
2022-08-03T08:22:30.620Z,28.32
2022-08-03T08:23:42.931Z,28.40
2022-08-03T08:24:24.227Z,28.50
2022-08-03T08:25:23.415Z,28.61
2022-08-03T08:26:23.454Z,28.73
2022-08-03T08:27:23.591Z,28.85
2022-08-03T08:28:32.127Z,29.00
2022-08-03T08:29:24.875Z,28.83
2022-08-03T08:30:23.986Z,28.79
2022-08-03T08:31:24.128Z,28.76
2022-08-03T08:32:24.238Z,28.94
2022-08-03T08:33:25.772Z,28.83
2022-08-03T08:34:24.455Z,28.91
2022-08-03T08:35:24.609Z,28.97
2022-08-03T08:36:24.728Z,29.12
2022-08-03T08:37:24.816Z,29.26
2022-08-03T08:38:25.039Z,29.49
2022-08-03T08:39:25.069Z,29.78
2022-08-03T08:40:25.217Z,29.76
2022-08-03T08:41:25.329Z,29.86
2022-08-03T08:42:26.516Z,29.71
2022-08-03T08:43:25.579Z,29.74
2022-08-03T08:44:25.729Z,29.66
2022-08-03T08:45:25.828Z,29.39
2022-08-03T08:46:25.976Z,29.17
2022-08-03T08:47:26.116Z,28.88
2022-08-03T08:48:26.217Z,29.07
2022-08-03T08:49:26.336Z,29.07
2022-08-03T08:50:27.884Z,29.21
2022-08-03T08:51:59.101Z,29.29
2022-08-03T08:52:31.967Z,29.25
2022-08-03T08:53:27.691Z,29.27
2022-08-03T08:54:26.969Z,29.44
2022-08-03T08:55:27.112Z,29.57
2022-08-03T08:56:27.226Z,29.86
2022-08-03T08:57:42.250Z,29.92
2022-08-03T08:58:28.489Z,30.19
2022-08-03T08:59:27.579Z,30.34
2022-08-03T09:00:28.688Z,30.06
2022-08-03T09:01:27.867Z,30.13
2022-08-03T09:02:27.962Z,30.15
2022-08-03T09:03:29.995Z,30.13
2022-08-03T09:04:28.207Z,30.00
2022-08-03T09:05:54.841Z,29.97
2022-08-03T09:06:29.470Z,30.13
2022-08-03T09:07:28.598Z,30.25
2022-08-03T09:08:28.737Z,30.54
2022-08-03T09:10:08.218Z,30.57
2022-08-03T09:10:29.990Z,30.51
2022-08-03T09:11:51.777Z,30.59
2022-08-03T09:12:42.006Z,30.60
2022-08-03T09:13:30.362Z,30.42
2022-08-03T09:14:36.738Z,30.38
2022-08-03T09:15:30.632Z,30.56
2022-08-03T09:16:29.771Z,30.61
2022-08-03T09:17:29.877Z,30.72
2022-08-03T09:18:32.216Z,30.75
2022-08-03T09:19:30.211Z,30.66
2022-08-03T09:20:30.270Z,30.54
2022-08-03T09:21:32.828Z,30.44
2022-08-03T09:22:30.562Z,30.36
2022-08-03T09:23:59.515Z,30.22
2022-08-03T09:24:41.305Z,30.32
2022-08-03T09:25:31.935Z,30.53
2022-08-03T09:26:31.135Z,30.59
2022-08-03T09:27:31.162Z,30.40
2022-08-03T09:28:56.481Z,30.61
2022-08-03T09:29:32.432Z,30.73
2022-08-03T09:30:34.742Z,30.78
2022-08-03T09:31:31.678Z,30.59
2022-08-03T09:32:32.904Z,30.72
2022-08-03T09:33:36.046Z,30.53
2022-08-03T09:34:32.182Z,30.29
2022-08-03T09:35:53.202Z,30.21
2022-08-03T09:36:34.520Z,30.16
2022-08-03T09:38:08.529Z,30.32
2022-08-03T09:38:33.562Z,30.88
2022-08-03T09:39:41.180Z,31.47
2022-08-03T09:40:33.826Z,31.71
2022-08-03T09:41:32.955Z,31.72
2022-08-03T09:42:33.103Z,31.60
2022-08-03T09:43:33.209Z,31.37
2022-08-03T09:44:33.375Z,31.46
2022-08-03T09:45:33.454Z,31.30
2022-08-03T09:46:33.610Z,31.20
2022-08-03T09:47:33.759Z,31.42
2022-08-03T09:48:33.852Z,31.59
2022-08-03T09:49:34.027Z,31.53
2022-08-03T09:50:34.155Z,31.59
2022-08-03T09:52:32.222Z,31.52
2022-08-03T09:52:39.187Z,31.42
2022-08-03T09:53:35.515Z,31.47
2022-08-03T09:54:34.606Z,31.42
2022-08-03T09:56:33.753Z,31.30
2022-08-03T09:56:37.211Z,31.60
2022-08-03T09:57:35.035Z,31.88
2022-08-03T09:58:35.113Z,31.91
2022-08-03T09:59:35.253Z,31.79
2022-08-03T10:00:35.375Z,31.18
2022-08-03T10:01:35.603Z,30.93
2022-08-03T10:02:35.926Z,30.64
2022-08-03T10:03:35.748Z,30.67
2022-08-03T10:04:37.599Z,30.66
2022-08-03T10:05:35.987Z,30.78
2022-08-03T10:06:36.075Z,31.25
2022-08-03T10:07:36.224Z,31.50
2022-08-03T10:08:37.328Z,31.99
2022-08-03T10:09:36.469Z,32.16
2022-08-03T10:10:36.588Z,32.12
2022-08-03T10:11:41.341Z,32.19
2022-08-03T10:12:37.818Z,31.99
2022-08-03T10:13:36.948Z,31.71
2022-08-03T10:14:37.048Z,31.03
2022-08-03T10:16:23.238Z,31.07
2022-08-03T10:16:40.279Z,30.85
2022-08-03T10:17:40.331Z,30.64
2022-08-03T10:18:37.563Z,30.72
2022-08-03T10:19:37.711Z,30.91
2022-08-03T10:20:37.851Z,31.09
2022-08-03T10:21:38.000Z,31.45
2022-08-03T10:22:38.113Z,31.57
2022-08-03T10:23:38.290Z,31.85
2022-08-03T10:24:38.377Z,32.09
2022-08-03T10:25:38.528Z,32.32
2022-08-03T10:26:38.668Z,32.51
2022-08-03T10:27:38.852Z,32.90
2022-08-03T10:28:42.973Z,32.84
2022-08-03T10:29:39.994Z,32.78
2022-08-03T10:30:39.121Z,32.87
2022-08-03T10:31:39.259Z,32.28
2022-08-03T10:32:40.393Z,31.71
2022-08-03T10:33:50.633Z,32.34
2022-08-03T10:34:44.416Z,33.18
2022-08-03T10:35:39.740Z,33.65
2022-08-03T10:36:39.837Z,33.75
2022-08-03T10:37:39.999Z,33.62
2022-08-03T10:38:41.113Z,33.50
2022-08-03T10:39:40.253Z,33.45
2022-08-03T10:40:48.816Z,33.50
2022-08-03T10:41:41.500Z,33.24
2022-08-03T10:42:42.093Z,32.90
2022-08-03T10:43:40.763Z,32.65
2022-08-03T10:44:40.840Z,32.12
2022-08-03T10:45:40.952Z,32.22
2022-08-03T10:46:44.751Z,32.54
2022-08-03T10:47:41.213Z,32.96
2022-08-03T10:48:41.339Z,33.22
2022-08-03T10:49:41.510Z,33.72
2022-08-03T10:50:41.592Z,34.15
2022-08-03T10:51:41.734Z,33.86
2022-08-03T10:52:43.543Z,33.79
2022-08-03T10:53:42.071Z,33.53
2022-08-03T10:54:42.104Z,33.41
2022-08-03T10:55:42.233Z,33.60
2022-08-03T10:56:48.066Z,33.86
2022-08-03T10:57:43.458Z,34.12
2022-08-03T10:58:57.060Z,34.55
2022-08-03T10:59:43.692Z,34.69
2022-08-03T11:00:42.824Z,34.65
2022-08-03T11:01:58.359Z,34.76
2022-08-03T11:02:44.023Z,34.88
2022-08-03T11:03:43.177Z,34.50
2022-08-03T11:04:43.284Z,34.87
2022-08-03T11:05:43.408Z,34.73
2022-08-03T11:06:43.523Z,34.55
2022-08-03T11:07:43.635Z,34.34
2022-08-03T11:08:44.755Z,34.14
2022-08-03T11:09:43.918Z,34.30
2022-08-03T11:10:43.990Z,34.67
2022-08-03T11:11:44.144Z,34.71
2022-08-03T11:12:44.305Z,34.86
2022-08-03T11:13:44.405Z,34.31
2022-08-03T11:14:44.535Z,34.01
2022-08-03T11:15:44.623Z,33.71
2022-08-03T11:16:44.789Z,33.99
2022-08-03T11:17:46.612Z,34.40
2022-08-03T11:18:46.028Z,34.16
2022-08-03T11:19:56.895Z,33.53
2022-08-03T11:20:46.293Z,32.76
2022-08-03T11:21:45.446Z,32.19
2022-08-03T11:22:45.552Z,32.50
2022-08-03T11:24:04.082Z,33.06
2022-08-03T11:24:46.805Z,33.43
2022-08-03T11:25:54.840Z,33.72
2022-08-03T11:26:47.064Z,33.70
2022-08-03T11:27:46.205Z,33.96
2022-08-03T11:28:46.345Z,34.34
2022-08-03T11:29:46.517Z,34.67
2022-08-03T11:30:47.334Z,34.81
2022-08-03T11:31:50.330Z,35.29
2022-08-03T11:32:48.688Z,35.46
2022-08-03T11:33:46.932Z,35.52
2022-08-03T11:34:47.246Z,35.66
2022-08-03T11:35:47.206Z,35.81
2022-08-03T11:36:47.304Z,36.06
2022-08-03T11:38:01.985Z,35.64
2022-08-03T11:38:48.560Z,36.16
2022-08-03T11:39:47.803Z,36.41
2022-08-03T11:40:47.809Z,35.98
2022-08-03T11:41:47.947Z,35.06
2022-08-03T11:42:48.120Z,34.46
2022-08-03T11:43:48.228Z,34.52
2022-08-03T11:44:48.318Z,34.53
2022-08-03T11:45:48.456Z,35.18
2022-08-03T11:46:48.539Z,35.76
2022-08-03T11:47:50.871Z,36.03
2022-08-03T11:48:48.793Z,35.80
2022-08-03T11:49:48.965Z,36.03
2022-08-03T11:50:49.039Z,36.19
2022-08-03T11:51:49.199Z,35.71
2022-08-03T11:52:49.341Z,35.52
2022-08-03T11:53:49.477Z,34.91
2022-08-03T11:54:49.641Z,35.22
2022-08-03T11:55:50.772Z,35.77
2022-08-03T11:56:49.894Z,35.98
2022-08-03T11:58:57.762Z,35.25
2022-08-03T11:59:18.874Z,35.87
2022-08-03T11:59:51.328Z,34.94
2022-08-03T12:00:50.388Z,34.18
2022-08-03T12:01:50.550Z,34.15
2022-08-03T12:02:50.691Z,34.50
2022-08-03T12:03:50.803Z,34.78
2022-08-03T12:04:50.900Z,35.56
2022-08-03T12:05:52.433Z,36.31
2022-08-03T12:06:51.247Z,36.99
2022-08-03T12:08:04.123Z,37.25
2022-08-03T12:08:52.389Z,38.12
2022-08-03T12:09:51.530Z,38.44
2022-08-03T12:10:51.651Z,38.55
2022-08-03T12:12:00.157Z,38.92
2022-08-03T12:12:52.890Z,39.24
2022-08-03T12:14:45.266Z,39.94
2022-08-03T12:14:53.122Z,39.91
2022-08-03T12:15:52.341Z,39.19
2022-08-03T12:16:52.384Z,38.93
2022-08-03T12:17:57.381Z,39.17
2022-08-03T12:18:53.693Z,39.19
2022-08-03T12:19:53.245Z,38.93
2022-08-03T12:20:53.617Z,39.76
2022-08-03T12:21:56.810Z,39.24
2022-08-03T12:22:53.153Z,39.92
2022-08-03T12:23:53.267Z,39.00
2022-08-03T12:24:53.368Z,37.90
2022-08-03T12:25:53.551Z,37.91
2022-08-03T12:26:59.141Z,38.14
2022-08-03T12:27:54.814Z,39.02
2022-08-03T12:28:53.915Z,38.49
2022-08-03T12:29:57.233Z,39.22
2022-08-03T12:30:55.178Z,38.82
2022-08-03T12:31:56.010Z,38.55
2022-08-03T12:32:54.401Z,36.71
2022-08-03T12:33:54.509Z,36.16
2022-08-03T12:34:54.642Z,36.23
2022-08-03T12:35:54.761Z,37.02
2022-08-03T12:36:54.964Z,36.60
2022-08-03T12:37:55.039Z,36.38
2022-08-03T12:38:55.142Z,36.71
2022-08-03T12:40:02.543Z,37.50
2022-08-03T12:40:56.374Z,37.93
2022-08-03T12:41:55.524Z,37.75
2022-08-03T12:42:55.623Z,37.81
2022-08-03T12:43:56.466Z,37.70
2022-08-03T12:44:56.549Z,37.40
2022-08-03T12:45:55.995Z,36.75
2022-08-03T12:46:56.127Z,36.08
2022-08-03T12:47:56.243Z,36.49
2022-08-03T12:48:56.362Z,37.15
2022-08-03T12:49:56.476Z,37.81
2022-08-03T12:50:56.570Z,37.33
2022-08-03T12:51:56.742Z,37.42
2022-08-03T12:52:56.865Z,38.19
2022-08-03T12:53:56.964Z,38.93